Time;durP1;ratioP1;P1;durP2;ratioP2;P2;SDS_P1;SDS_P2;PMS_P1;PMS_P2;Temp;Humidity;BMP_temperature;BMP_pressure;BME280_temperature;BME280_humidity;BME280_pressure;Samples;Min_cycle;Max_cycle;Signal;HPM_P1;HPM_P2
2021/12/01 00:01:00;;;;;;;20.83;8.65;;;;;;;;;;5019933;28;20426;-71
2021/12/01 00:03:28;;;;;;;21.45;8.00;;;;;;;;;;5037441;28;20026;-72
2021/12/01 00:05:55;;;;;;;18.80;8.55;;;;;;;;;;5037413;28;20151;-72
2021/12/01 00:08:26;;;;;;;24.33;9.82;;;;;;;;;;5019847;28;20066;-72
2021/12/01 00:10:53;;;;;;;23.52;9.88;;;;;;;;;;5037402;28;20057;-72
2021/12/01 00:13:22;;;;;;;19.30;8.90;;;;;;;;;;5037462;28;20025;-73
2021/12/01 00:15:50;;;;;;;19.13;8.95;;;;;;;;;;5037660;28;20032;-73
2021/12/01 00:18:18;;;;;;;21.02;8.50;;;;;;;;;;5020059;28;20036;-73
2021/12/01 00:20:46;;;;;;;19.98;9.63;;;;;;;;;;5037619;28;20092;-72
2021/12/01 00:23:18;;;;;;;18.45;7.95;;;;;;;;;;5037559;28;20028;-72
2021/12/01 00:25:56;;;;;;;17.92;8.45;;;;;;;;;;5037585;28;20017;-73
2021/12/01 00:28:24;;;;;;;21.63;7.13;;;;;;;;;;5020114;28;20021;-72
2021/12/01 00:30:52;;;;;;;19.23;7.70;;;;;;;;;;5054308;28;20040;-73
2021/12/01 00:33:23;;;;;;;19.27;10.75;;;;;;;;;;5057375;28;20074;-73
2021/12/01 00:35:54;;;;;;;22.08;10.20;;;;;;;;;;5039743;28;20037;-73
2021/12/01 00:38:22;;;;;;;18.15;7.50;;;;;;;;;;5056557;28;20013;-73
2021/12/01 00:40:51;;;;;;;20.10;8.57;;;;;;;;;;4983402;28;20068;-74
2021/12/01 00:43:19;;;;;;;18.92;7.90;;;;;;;;;;4980525;28;20035;-73
2021/12/01 00:45:56;;;;;;;12.95;6.32;;;;;;;;;;4996396;28;20022;-73
2021/12/01 00:48:25;;;;;;;18.33;6.28;;;;;;;;;;4996571;28;20023;-73
2021/12/01 00:50:53;;;;;;;17.98;7.85;;;;;;;;;;4996429;28;20456;-73
2021/12/01 00:53:21;;;;;;;39.08;17.90;;;;;;;;;;4995686;28;20489;-73
2021/12/01 00:55:49;;;;;;;67.38;29.67;;;;;;;;;;4976409;28;20081;-73
2021/12/01 00:58:17;;;;;;;84.05;33.53;;;;;;;;;;4975481;28;20109;-73
2021/12/01 01:00:48;;;;;;;96.72;40.08;;;;;;;;;;4975748;28;20094;-74
2021/12/01 01:03:16;;;;;;;91.00;39.53;;;;;;;;;;4975468;28;20039;-73
2021/12/01 01:05:44;;;;;;;131.98;52.40;;;;;;;;;;4959392;28;20027;-73
2021/12/01 01:08:11;;;;;;;131.48;55.83;;;;;;;;;;4975617;28;20027;-73
2021/12/01 01:19:04;;;;;;;95.18;37.75;;;;;;;;;;4956006;29;20031;-73
2021/12/01 01:21:33;;;;;;;89.70;37.42;;;;;;;;;;4955940;29;20110;-73
2021/12/01 01:24:02;;;;;;;80.18;33.17;;;;;;;;;;4955864;29;20035;-72
2021/12/01 01:26:30;;;;;;;91.50;35.85;;;;;;;;;;4939552;29;20032;-73
2021/12/01 01:28:57;;;;;;;89.45;37.08;;;;;;;;;;4955682;29;20126;-73
2021/12/01 01:31:25;;;;;;;97.57;39.33;;;;;;;;;;4939693;29;20055;-73
2021/12/01 01:33:53;;;;;;;80.22;34.60;;;;;;;;;;4955721;29;20039;-73
2021/12/01 01:36:21;;;;;;;99.30;40.75;;;;;;;;;;4955920;29;20042;-76
2021/12/01 01:38:48;;;;;;;117.72;47.40;;;;;;;;;;4939579;29;20114;-70
2021/12/01 01:41:19;;;;;;;139.52;52.60;;;;;;;;;;4955703;29;20035;-67
2021/12/01 01:43:47;;;;;;;94.78;38.17;;;;;;;;;;4939604;29;20412;-67
2021/12/01 01:46:15;;;;;;;105.55;45.03;;;;;;;;;;4977542;28;20035;-67
2021/12/01 01:48:53;;;;;;;98.00;42.13;;;;;;;;;;4994351;28;20285;-66
2021/12/01 01:51:25;;;;;;;182.10;66.18;;;;;;;;;;4994231;28;20109;-66
2021/12/01 01:53:55;;;;;;;183.70;71.70;;;;;;;;;;5015835;28;20362;-71
2021/12/01 01:56:21;;;;;;;174.75;68.05;;;;;;;;;;5017614;28;21152;-71
2021/12/01 01:58:49;;;;;;;168.05;67.78;;;;;;;;;;5035369;28;20312;-70
2021/12/01 02:04:05;;;;;;;194.95;78.53;;;;;;;;;;5033681;28;20039;-73
2021/12/01 02:06:33;;;;;;;182.00;80.07;;;;;;;;;;5016232;28;20382;-69
2021/12/01 02:09:00;;;;;;;197.45;83.43;;;;;;;;;;5042478;28;20052;-73
2021/12/01 02:11:29;;;;;;;194.65;82.93;;;;;;;;;;5048809;28;20156;-72
2021/12/01 02:13:57;;;;;;;191.95;87.30;;;;;;;;;;5042403;28;20411;-72
2021/12/01 02:16:25;;;;;;;140.98;64.05;;;;;;;;;;5020959;28;20026;-73
2021/12/01 02:18:53;;;;;;;122.72;51.50;;;;;;;;;;5010331;28;20121;-69
2021/12/01 02:21:28;;;;;;;263.98;109.15;;;;;;;;;;5029930;28;20025;-69
2021/12/01 02:24:04;;;;;;;238.10;99.43;;;;;;;;;;5021498;28;20107;-69
2021/12/01 02:26:32;;;;;;;217.18;97.10;;;;;;;;;;5039056;28;20100;-69
2021/12/01 02:29:01;;;;;;;235.35;107.78;;;;;;;;;;5019305;28;20033;-69
2021/12/01 02:31:33;;;;;;;220.15;93.30;;;;;;;;;;5019302;28;20097;-69
2021/12/01 02:34:01;;;;;;;260.20;113.38;;;;;;;;;;5019212;28;20021;-68
2021/12/01 02:36:29;;;;;;;228.25;102.10;;;;;;;;;;5019094;28;20463;-73
2021/12/01 02:38:57;;;;;;;157.88;65.53;;;;;;;;;;5035289;28;20112;-70
2021/12/01 02:41:29;;;;;;;133.80;57.80;;;;;;;;;;5038823;28;20029;-72
2021/12/01 02:43:58;;;;;;;143.73;60.38;;;;;;;;;;5021000;28;20351;-69
2021/12/01 02:46:26;;;;;;;237.30;101.13;;;;;;;;;;5038698;28;20025;-69
2021/12/01 02:48:55;;;;;;;327.38;135.15;;;;;;;;;;5039067;28;20026;-70
2021/12/01 02:51:27;;;;;;;288.60;124.05;;;;;;;;;;5021005;28;20033;-68
2021/12/01 02:53:54;;;;;;;255.63;103.20;;;;;;;;;;5038670;28;20112;-68
2021/12/01 02:56:22;;;;;;;228.27;94.28;;;;;;;;;;5038343;28;20044;-68
2021/12/01 02:58:50;;;;;;;228.95;85.50;;;;;;;;;;5021120;28;20025;-69
2021/12/01 03:01:20;;;;;;;195.88;75.53;;;;;;;;;;5021925;28;20037;-68
2021/12/01 03:03:48;;;;;;;177.90;70.30;;;;;;;;;;5038520;28;20028;-69
2021/12/01 03:06:17;;;;;;;158.68;56.45;;;;;;;;;;5038650;28;20028;-69
2021/12/01 03:08:46;;;;;;;132.32;49.70;;;;;;;;;;5038460;28;20021;-68
2021/12/01 03:11:15;;;;;;;115.35;45.40;;;;;;;;;;5020639;28;20379;-68
2021/12/01 03:13:43;;;;;;;102.35;43.75;;;;;;;;;;5038176;28;20111;-69
2021/12/01 03:16:11;;;;;;;56.10;24.42;;;;;;;;;;5020296;28;20025;-69
2021/12/01 03:18:40;;;;;;;50.17;19.27;;;;;;;;;;5019940;28;20029;-69
2021/12/01 03:21:07;;;;;;;63.63;25.20;;;;;;;;;;5020954;28;20112;-70
2021/12/01 03:23:35;;;;;;;67.18;29.52;;;;;;;;;;5020210;28;20383;-71
2021/12/01 03:26:03;;;;;;;52.40;23.48;;;;;;;;;;5037329;28;20021;-71
2021/12/01 03:28:30;;;;;;;48.75;23.02;;;;;;;;;;5037845;28;20014;-71
2021/12/01 03:30:58;;;;;;;50.28;23.10;;;;;;;;;;5037906;28;20017;-71
2021/12/01 03:33:26;;;;;;;39.97;16.17;;;;;;;;;;5038044;28;20029;-69
2021/12/01 03:35:54;;;;;;;38.58;16.02;;;;;;;;;;5038570;28;20048;-69
2021/12/01 03:38:25;;;;;;;43.60;16.00;;;;;;;;;;5020313;28;20037;-70
2021/12/01 03:40:53;;;;;;;44.22;17.80;;;;;;;;;;5019757;28;20033;-69
2021/12/01 03:43:21;;;;;;;44.00;20.55;;;;;;;;;;5037200;28;20029;-69
2021/12/01 03:45:49;;;;;;;48.88;20.75;;;;;;;;;;5019816;28;20049;-70
2021/12/01 03:48:16;;;;;;;48.75;23.10;;;;;;;;;;5037106;28;20430;-71
2021/12/01 03:50:49;;;;;;;62.58;24.35;;;;;;;;;;5020047;28;20049;-71
2021/12/01 03:53:17;;;;;;;58.63;25.10;;;;;;;;;;5037947;28;20064;-70
2021/12/01 03:55:48;;;;;;;58.10;25.17;;;;;;;;;;5020465;28;20040;-69
2021/12/01 03:58:15;;;;;;;58.92;24.58;;;;;;;;;;5037041;28;20053;-73
2021/12/01 04:00:44;;;;;;;59.20;23.98;;;;;;;;;;5037109;28;20049;-70
2021/12/01 04:03:12;;;;;;;48.90;19.83;;;;;;;;;;5019521;28;20076;-71
2021/12/01 04:05:39;;;;;;;47.20;18.40;;;;;;;;;;5037193;28;20018;-71
2021/12/01 04:08:08;;;;;;;48.30;19.40;;;;;;;;;;5019499;28;20376;-71
2021/12/01 04:10:35;;;;;;;35.05;12.30;;;;;;;;;;5019701;28;20072;-71
2021/12/01 04:13:03;;;;;;;38.80;11.98;;;;;;;;;;5036976;28;20477;-71
2021/12/01 04:15:31;;;;;;;32.33;9.27;;;;;;;;;;5037917;28;20029;-70
2021/12/01 04:17:59;;;;;;;22.02;8.35;;;;;;;;;;5038080;28;20022;-70
2021/12/01 04:20:26;;;;;;;25.17;9.48;;;;;;;;;;5020866;28;20115;-69
2021/12/01 04:22:54;;;;;;;28.90;10.50;;;;;;;;;;5037820;28;20026;-68
2021/12/01 04:25:36;;;;;;;32.03;9.80;;;;;;;;;;5043648;28;20006;-69
2021/12/01 04:28:04;;;;;;;19.27;7.72;;;;;;;;;;5054158;28;20081;-69
2021/12/01 04:30:52;;;;;;;32.03;8.50;;;;;;;;;;5034443;28;20030;-71
2021/12/01 04:33:31;;;;;;;23.80;7.28;;;;;;;;;;5033429;28;20417;-70
2021/12/01 04:35:59;;;;;;;18.65;6.50;;;;;;;;;;5022357;28;20113;-71
2021/12/01 04:38:27;;;;;;;16.88;6.22;;;;;;;;;;5037828;28;20108;-73
2021/12/01 04:40:54;;;;;;;22.25;8.32;;;;;;;;;;5036841;28;20049;-72
2021/12/01 04:43:22;;;;;;;28.35;10.85;;;;;;;;;;5018713;28;20023;-73
2021/12/01 04:45:58;;;;;;;21.90;8.10;;;;;;;;;;5036182;28;20029;-74
2021/12/01 04:48:27;;;;;;;28.58;8.50;;;;;;;;;;5036268;28;20032;-72
2021/12/01 04:50:55;;;;;;;22.83;8.00;;;;;;;;;;5018970;28;20029;-71
2021/12/01 04:53:25;;;;;;;28.75;7.45;;;;;;;;;;5036108;28;20029;-70
2021/12/01 04:55:54;;;;;;;33.28;10.00;;;;;;;;;;5036221;28;20025;-69
2021/12/01 04:58:22;;;;;;;31.27;11.02;;;;;;;;;;5036064;28;20049;-72
2021/12/01 05:00:49;;;;;;;27.35;8.65;;;;;;;;;;5018440;28;20037;-71
2021/12/01 05:03:17;;;;;;;24.02;7.18;;;;;;;;;;5020898;28;20307;-69
2021/12/01 05:05:44;;;;;;;40.80;17.92;;;;;;;;;;5018450;28;20387;-69
2021/12/01 05:08:12;;;;;;;21.50;5.95;;;;;;;;;;5036294;28;20442;-69
2021/12/01 05:10:40;;;;;;;20.73;7.05;;;;;;;;;;5018525;28;20030;-69
2021/12/01 05:13:07;;;;;;;20.48;6.07;;;;;;;;;;5035777;28;20029;-73
2021/12/01 05:15:35;;;;;;;22.70;6.28;;;;;;;;;;5035747;28;20029;-73
2021/12/01 05:18:03;;;;;;;18.65;6.97;;;;;;;;;;5035882;28;20041;-71
2021/12/01 05:20:31;;;;;;;17.00;7.82;;;;;;;;;;5036035;28;20029;-72
2021/12/01 05:22:58;;;;;;;20.90;8.75;;;;;;;;;;5035636;28;20087;-74
2021/12/01 05:25:26;;;;;;;19.13;6.63;;;;;;;;;;5035999;28;20426;-72
2021/12/01 05:27:53;;;;;;;38.00;8.77;;;;;;;;;;5035270;28;20049;-73
2021/12/01 05:30:21;;;;;;;33.90;11.85;;;;;;;;;;5035685;28;20025;-71
2021/12/01 05:32:49;;;;;;;32.80;11.77;;;;;;;;;;5018580;28;20493;-74
2021/12/01 05:35:17;;;;;;;41.42;15.38;;;;;;;;;;5021206;28;20055;-71
2021/12/01 05:37:44;;;;;;;29.95;10.82;;;;;;;;;;5036545;28;20422;-73
2021/12/01 05:40:11;;;;;;;20.15;7.25;;;;;;;;;;5035661;28;20030;-71
2021/12/01 05:42:39;;;;;;;16.98;6.20;;;;;;;;;;5034945;28;20304;-70
2021/12/01 05:45:07;;;;;;;16.58;6.30;;;;;;;;;;5017712;28;20318;-71
2021/12/01 05:47:35;;;;;;;22.75;6.20;;;;;;;;;;5035845;28;20026;-71
2021/12/01 05:50:04;;;;;;;16.63;6.40;;;;;;;;;;5018174;28;20026;-71
2021/12/01 05:52:33;;;;;;;19.05;7.10;;;;;;;;;;5017860;28;20422;-71
2021/12/01 05:55:01;;;;;;;25.73;7.55;;;;;;;;;;5035459;28;20147;-72
2021/12/01 05:57:27;;;;;;;23.10;6.63;;;;;;;;;;5034930;28;20507;-72
2021/12/01 05:59:54;;;;;;;20.38;6.82;;;;;;;;;;5035230;28;20045;-71
2021/12/01 06:02:21;;;;;;;23.73;6.82;;;;;;;;;;5035056;28;20037;-71
2021/12/01 06:04:49;;;;;;;21.27;6.65;;;;;;;;;;5035116;28;20025;-72
2021/12/01 06:07:16;;;;;;;24.95;6.53;;;;;;;;;;5017426;28;20040;-74
2021/12/01 06:09:44;;;;;;;19.65;6.53;;;;;;;;;;5035060;28;20053;-73
2021/12/01 06:12:15;;;;;;;22.33;8.30;;;;;;;;;;5017040;28;20112;-72
2021/12/01 06:14:44;;;;;;;29.30;8.57;;;;;;;;;;5017045;28;20029;-73
2021/12/01 06:17:13;;;;;;;25.75;7.68;;;;;;;;;;5017007;28;20172;-74
2021/12/01 06:19:41;;;;;;;19.10;7.35;;;;;;;;;;5034829;28;20422;-72
2021/12/01 06:22:09;;;;;;;18.67;7.47;;;;;;;;;;5034388;28;20030;-73
2021/12/01 06:24:36;;;;;;;16.73;7.63;;;;;;;;;;5034769;28;20030;-72
2021/12/01 06:27:07;;;;;;;20.55;8.15;;;;;;;;;;5034754;28;20014;-71
2021/12/01 06:29:36;;;;;;;21.15;8.02;;;;;;;;;;5034562;28;20033;-73
2021/12/01 06:32:05;;;;;;;16.25;7.55;;;;;;;;;;5034609;28;20108;-73
2021/12/01 06:34:32;;;;;;;15.63;6.22;;;;;;;;;;5034472;28;20445;-72
2021/12/01 06:37:00;;;;;;;12.88;6.20;;;;;;;;;;5017119;28;20029;-72
2021/12/01 06:39:27;;;;;;;18.98;5.35;;;;;;;;;;5034556;28;20030;-73
2021/12/01 06:41:55;;;;;;;20.98;5.28;;;;;;;;;;5034413;28;20049;-73
2021/12/01 06:44:24;;;;;;;17.70;6.38;;;;;;;;;;5034304;28;20470;-72
2021/12/01 06:47:02;;;;;;;21.67;5.40;;;;;;;;;;5034282;28;20438;-74
2021/12/01 06:49:30;;;;;;;18.77;6.50;;;;;;;;;;5016623;28;20381;-73
2021/12/01 06:51:58;;;;;;;24.02;8.25;;;;;;;;;;5035534;28;20026;-72
2021/12/01 06:54:25;;;;;;;27.00;10.65;;;;;;;;;;5038927;28;20048;-71
2021/12/01 06:56:52;;;;;;;26.65;11.90;;;;;;;;;;5038584;28;20049;-71
2021/12/01 06:59:20;;;;;;;15.95;7.57;;;;;;;;;;5038900;28;20101;-72
2021/12/01 07:01:50;;;;;;;13.07;4.30;;;;;;;;;;5024118;28;20041;-71
2021/12/01 07:04:26;;;;;;;11.43;3.67;;;;;;;;;;5027524;28;20029;-75
2021/12/01 07:06:54;;;;;;;8.55;3.53;;;;;;;;;;5035291;28;20034;-74
2021/12/01 07:09:25;;;;;;;10.82;3.72;;;;;;;;;;5038212;28;20419;-72
2021/12/01 07:11:53;;;;;;;15.60;4.10;;;;;;;;;;5037948;28;20022;-72
2021/12/01 07:14:21;;;;;;;11.60;4.18;;;;;;;;;;5020370;28;20018;-71
2021/12/01 07:16:49;;;;;;;13.50;4.07;;;;;;;;;;5039969;28;20021;-72
2021/12/01 07:19:17;;;;;;;19.08;4.68;;;;;;;;;;5038136;28;20026;-71
2021/12/01 07:21:44;;;;;;;12.93;4.57;;;;;;;;;;5037623;28;20035;-71
2021/12/01 07:24:12;;;;;;;16.88;4.20;;;;;;;;;;5020452;28;20303;-72
2021/12/01 07:26:40;;;;;;;12.77;5.00;;;;;;;;;;5027370;28;20029;-71
2021/12/01 07:29:08;;;;;;;20.60;4.70;;;;;;;;;;5020395;28;20342;-71
2021/12/01 07:31:35;;;;;;;15.32;6.00;;;;;;;;;;5040289;28;20036;-72
2021/12/01 07:34:03;;;;;;;20.75;5.85;;;;;;;;;;5022109;28;20553;-71
2021/12/01 07:36:30;;;;;;;16.90;5.28;;;;;;;;;;5038312;28;20026;-70
2021/12/01 07:38:59;;;;;;;14.20;4.50;;;;;;;;;;5037770;28;20028;-71
2021/12/01 07:41:27;;;;;;;12.05;3.95;;;;;;;;;;5038987;28;20061;-72
2021/12/01 07:43:55;;;;;;;21.08;4.80;;;;;;;;;;5039703;28;20072;-71
2021/12/01 07:46:23;;;;;;;19.40;8.40;;;;;;;;;;5037678;28;20025;-70
2021/12/01 07:48:50;;;;;;;22.50;8.52;;;;;;;;;;5035088;28;20033;-69
2021/12/01 07:51:18;;;;;;;22.65;6.93;;;;;;;;;;5019184;28;20026;-68
2021/12/01 07:53:46;;;;;;;17.42;5.75;;;;;;;;;;5038275;28;20029;-67
2021/12/01 07:56:13;;;;;;;19.42;6.80;;;;;;;;;;5019983;28;20036;-69
2021/12/01 07:58:41;;;;;;;15.02;6.88;;;;;;;;;;5038424;28;20103;-68
2021/12/01 08:01:09;;;;;;;20.00;6.35;;;;;;;;;;5020379;28;20095;-68
2021/12/01 08:03:37;;;;;;;29.40;10.15;;;;;;;;;;5020066;28;20064;-67
2021/12/01 08:06:04;;;;;;;30.15;10.50;;;;;;;;;;5037201;28;20026;-69
2021/12/01 08:08:32;;;;;;;34.30;10.50;;;;;;;;;;5037231;28;20018;-68
2021/12/01 08:11:00;;;;;;;31.95;12.02;;;;;;;;;;5037068;28;20030;-68
2021/12/01 08:13:27;;;;;;;31.08;12.38;;;;;;;;;;5039532;28;20097;-70
2021/12/01 08:15:55;;;;;;;36.10;13.77;;;;;;;;;;5037144;28;20091;-67
2021/12/01 08:18:22;;;;;;;43.03;18.90;;;;;;;;;;5037014;28;20484;-69
2021/12/01 08:20:50;;;;;;;30.83;15.30;;;;;;;;;;5037207;28;20036;-69
2021/12/01 08:23:18;;;;;;;44.90;19.23;;;;;;;;;;5036916;28;20061;-68
2021/12/01 08:25:45;;;;;;;41.05;18.73;;;;;;;;;;5019952;28;20079;-68
2021/12/01 08:28:13;;;;;;;40.05;18.65;;;;;;;;;;5019123;28;20023;-69
2021/12/01 08:30:41;;;;;;;50.40;22.60;;;;;;;;;;5037414;28;20021;-70
2021/12/01 08:33:09;;;;;;;54.30;25.20;;;;;;;;;;5018945;28;20021;-68
2021/12/01 08:35:37;;;;;;;61.15;26.10;;;;;;;;;;5018060;28;20033;-68
2021/12/01 08:38:04;;;;;;;51.95;25.13;;;;;;;;;;5036338;28;20206;-70
2021/12/01 08:40:32;;;;;;;58.60;27.15;;;;;;;;;;5037591;28;20132;-71
2021/12/01 08:43:00;;;;;;;55.28;26.58;;;;;;;;;;5038586;28;20057;-68
2021/12/01 08:45:27;;;;;;;65.13;28.23;;;;;;;;;;5018564;28;20033;-69
2021/12/01 08:47:55;;;;;;;63.42;25.80;;;;;;;;;;5019582;28;20072;-69
2021/12/01 08:50:22;;;;;;;66.03;28.38;;;;;;;;;;5037072;28;20441;-68
2021/12/01 08:52:50;;;;;;;66.93;28.60;;;;;;;;;;5018327;28;20040;-68
2021/12/01 08:55:21;;;;;;;53.28;24.30;;;;;;;;;;5036433;28;20280;-68
2021/12/01 08:57:48;;;;;;;60.88;27.20;;;;;;;;;;5035694;28;20049;-69
2021/12/01 09:00:16;;;;;;;66.22;28.45;;;;;;;;;;5035666;28;20037;-69
2021/12/01 09:02:43;;;;;;;59.85;27.85;;;;;;;;;;5036251;28;20303;-67
2021/12/01 09:05:11;;;;;;;65.38;28.23;;;;;;;;;;5035890;28;20025;-68
2021/12/01 09:07:39;;;;;;;67.60;30.80;;;;;;;;;;5035914;28;20014;-67
2021/12/01 09:10:07;;;;;;;62.42;30.17;;;;;;;;;;5035863;28;20445;-69
2021/12/01 09:12:35;;;;;;;76.05;31.48;;;;;;;;;;5035703;28;20076;-68
2021/12/01 09:15:03;;;;;;;72.97;30.83;;;;;;;;;;5035655;28;20442;-68
2021/12/01 09:17:30;;;;;;;85.40;32.17;;;;;;;;;;5036479;28;20033;-67
2021/12/01 09:19:58;;;;;;;71.03;31.75;;;;;;;;;;5035931;28;20059;-67
2021/12/01 09:22:26;;;;;;;77.90;31.25;;;;;;;;;;5035669;28;20030;-66
2021/12/01 09:24:53;;;;;;;71.53;29.95;;;;;;;;;;5036576;28;20100;-68
2021/12/01 09:27:21;;;;;;;60.83;30.38;;;;;;;;;;5036312;28;20025;-68
2021/12/01 09:29:48;;;;;;;71.55;29.17;;;;;;;;;;5018284;28;20032;-70
2021/12/01 09:32:16;;;;;;;57.63;29.35;;;;;;;;;;5035836;28;20099;-68
2021/12/01 09:34:44;;;;;;;63.80;29.52;;;;;;;;;;5018999;28;20034;-68
2021/12/01 09:37:12;;;;;;;60.83;27.23;;;;;;;;;;5033105;28;20021;-68
2021/12/01 09:39:39;;;;;;;59.42;26.30;;;;;;;;;;5035763;28;20027;-69
2021/12/01 09:42:08;;;;;;;66.32;27.92;;;;;;;;;;5018405;28;20026;-70
2021/12/01 09:44:36;;;;;;;54.72;27.67;;;;;;;;;;5035880;28;20479;-68
2021/12/01 09:47:04;;;;;;;67.35;28.25;;;;;;;;;;5017711;28;20037;-69
2021/12/01 09:49:32;;;;;;;62.17;29.38;;;;;;;;;;5019713;28;20109;-70
2021/12/01 09:52:00;;;;;;;58.33;26.58;;;;;;;;;;5035475;28;20049;-70
2021/12/01 09:54:27;;;;;;;58.42;26.15;;;;;;;;;;5035822;28;20029;-70
2021/12/01 09:56:54;;;;;;;57.47;25.98;;;;;;;;;;5035560;28;20056;-69
2021/12/01 09:59:22;;;;;;;54.45;24.95;;;;;;;;;;5035642;28;20030;-68
2021/12/01 10:01:50;;;;;;;57.88;25.23;;;;;;;;;;5035599;28;20045;-68
2021/12/01 10:04:18;;;;;;;58.97;25.52;;;;;;;;;;5018159;28;20112;-69
2021/12/01 10:06:45;;;;;;;51.33;25.15;;;;;;;;;;5018796;28;20025;-68
2021/12/01 10:09:14;;;;;;;57.83;25.85;;;;;;;;;;5018863;28;20324;-68
2021/12/01 10:11:42;;;;;;;55.70;25.67;;;;;;;;;;5036332;28;20018;-68
2021/12/01 10:14:20;;;;;;;53.42;23.75;;;;;;;;;;5036428;28;20028;-69
2021/12/01 10:16:52;;;;;;;56.53;27.10;;;;;;;;;;5035293;28;20095;-69
2021/12/01 10:19:19;;;;;;;58.88;25.23;;;;;;;;;;5036114;28;20079;-68
2021/12/01 10:21:52;;;;;;;54.15;25.50;;;;;;;;;;5036819;28;20099;-68
2021/12/01 10:24:23;;;;;;;56.78;30.48;;;;;;;;;;5036268;28;20057;-69
2021/12/01 10:26:57;;;;;;;67.88;35.45;;;;;;;;;;5036185;28;20489;-69
2021/12/01 10:29:27;;;;;;;74.13;31.20;;;;;;;;;;5021244;28;20030;-68
2021/12/01 10:32:00;;;;;;;138.02;65.40;;;;;;;;;;5018340;28;20442;-69
2021/12/01 10:34:35;;;;;;;90.43;41.60;;;;;;;;;;5019732;28;20022;-68
2021/12/01 10:37:26;;;;;;;103.05;50.03;;;;;;;;;;5003234;28;20029;-69
2021/12/01 10:40:12;;;;;;;101.38;49.55;;;;;;;;;;5020994;28;20097;-72
2021/12/01 10:42:57;;;;;;;112.32;54.47;;;;;;;;;;5020267;28;20057;-68
2021/12/01 10:45:26;;;;;;;76.75;35.13;;;;;;;;;;5019353;28;20739;-74
2021/12/01 10:47:54;;;;;;;95.55;42.58;;;;;;;;;;5002164;28;20054;-71
2021/12/01 10:50:23;;;;;;;76.70;35.88;;;;;;;;;;5001891;28;20328;-69
2021/12/01 10:52:53;;;;;;;91.97;41.33;;;;;;;;;;5033432;28;20115;-68
2021/12/01 10:55:25;;;;;;;94.07;43.28;;;;;;;;;;5039576;28;20032;-70
2021/12/01 10:57:55;;;;;;;131.85;57.00;;;;;;;;;;5038730;28;20050;-69
2021/12/01 11:00:32;;;;;;;191.95;82.85;;;;;;;;;;5021678;28;20048;-66
2021/12/01 11:03:13;;;;;;;647.33;243.52;;;;;;;;;;5020774;28;20039;-67
2021/12/01 11:05:50;;;;;;;216.90;86.93;;;;;;;;;;5038750;28;20024;-72
2021/12/01 11:08:20;;;;;;;138.30;57.72;;;;;;;;;;5038818;28;20284;-73
2021/12/01 11:10:50;;;;;;;182.05;79.15;;;;;;;;;;5038551;28;20028;-72
2021/12/01 11:13:18;;;;;;;155.80;69.50;;;;;;;;;;5038541;28;20029;-73
2021/12/01 11:15:50;;;;;;;338.08;157.77;;;;;;;;;;5038465;28;20029;-72
2021/12/01 11:18:22;;;;;;;329.52;156.27;;;;;;;;;;5020982;28;20045;-72
2021/12/01 11:20:53;;;;;;;311.45;149.07;;;;;;;;;;5021543;28;20034;-71
2021/12/01 11:23:35;;;;;;;249.52;118.45;;;;;;;;;;5038531;28;20028;-72
2021/12/01 11:26:05;;;;;;;206.50;91.65;;;;;;;;;;5020979;28;20021;-73
2021/12/01 11:28:35;;;;;;;140.00;63.42;;;;;;;;;;5039009;28;20026;-72
2021/12/01 11:31:04;;;;;;;145.45;61.70;;;;;;;;;;5038985;28;20099;-72
2021/12/01 11:33:31;;;;;;;137.30;51.95;;;;;;;;;;5038160;28;20029;-72
2021/12/01 11:36:01;;;;;;;156.38;53.17;;;;;;;;;;5020373;28;20033;-72
2021/12/01 11:38:29;;;;;;;130.48;53.03;;;;;;;;;;5020904;28;20026;-72
2021/12/01 11:40:56;;;;;;;159.45;58.58;;;;;;;;;;5020237;28;20033;-72
2021/12/01 11:43:26;;;;;;;155.57;58.40;;;;;;;;;;5037991;28;20139;-72
2021/12/01 11:45:54;;;;;;;157.88;60.35;;;;;;;;;;5038491;28;20030;-72
2021/12/01 11:48:29;;;;;;;160.13;61.83;;;;;;;;;;5038057;28;20457;-72
2021/12/01 11:51:14;;;;;;;161.68;59.22;;;;;;;;;;5038548;28;20025;-72
2021/12/01 11:53:44;;;;;;;151.48;60.25;;;;;;;;;;5038654;28;20402;-71
2021/12/01 11:56:21;;;;;;;156.70;60.53;;;;;;;;;;5038524;28;20060;-73
2021/12/01 11:58:56;;;;;;;188.93;77.22;;;;;;;;;;5037808;28;20052;-74
2021/12/01 12:01:26;;;;;;;168.77;67.03;;;;;;;;;;5020729;28;20021;-72
2021/12/01 12:03:59;;;;;;;172.82;70.07;;;;;;;;;;5037649;28;20021;-73
2021/12/01 12:06:28;;;;;;;218.68;96.68;;;;;;;;;;5037576;28;20024;-72
2021/12/01 12:09:06;;;;;;;226.35;100.93;;;;;;;;;;5019161;28;20028;-73
2021/12/01 12:11:37;;;;;;;257.52;113.95;;;;;;;;;;5037388;28;20044;-73
2021/12/01 12:14:06;;;;;;;277.83;117.65;;;;;;;;;;5037824;28;20033;-72
2021/12/01 12:16:35;;;;;;;280.40;124.53;;;;;;;;;;5037290;28;20029;-71
2021/12/01 12:19:03;;;;;;;294.42;128.70;;;;;;;;;;5020010;28;20033;-72
2021/12/01 12:24:06;;;;;;;338.85;150.38;;;;;;;;;;5037137;28;20101;-72
2021/12/01 12:26:44;;;;;;;423.85;198.25;;;;;;;;;;5037960;28;20032;-71
2021/12/01 12:29:23;;;;;;;409.40;177.52;;;;;;;;;;5037418;28;20028;-72
2021/12/01 12:31:54;;;;;;;370.85;158.63;;;;;;;;;;5037403;28;20014;-72
2021/12/01 12:34:24;;;;;;;368.40;164.95;;;;;;;;;;5019088;28;20205;-71
2021/12/01 12:36:58;;;;;;;467.65;209.95;;;;;;;;;;5036653;28;20178;-71
2021/12/01 12:39:44;;;;;;;487.50;230.60;;;;;;;;;;5037024;28;20108;-72
2021/12/01 12:42:12;;;;;;;557.85;263.27;;;;;;;;;;5020418;28;20100;-71
2021/12/01 12:44:47;;;;;;;598.55;293.58;;;;;;;;;;4996476;28;20030;-72
2021/12/01 12:47:32;;;;;;;618.40;312.50;;;;;;;;;;4997578;28;20058;-71
2021/12/01 12:50:10;;;;;;;627.28;311.33;;;;;;;;;;5000902;28;20050;-72
2021/12/01 12:52:41;;;;;;;624.47;309.70;;;;;;;;;;5012079;28;20027;-72
2021/12/01 12:55:16;;;;;;;595.10;297.10;;;;;;;;;;5013042;28;20089;-72
2021/12/01 12:57:59;;;;;;;589.58;293.48;;;;;;;;;;4997899;28;20081;-72
2021/12/01 13:00:37;;;;;;;570.28;272.13;;;;;;;;;;4997882;28;20027;-72
2021/12/01 13:03:22;;;;;;;522.00;236.65;;;;;;;;;;4996534;28;20041;-71
2021/12/01 13:05:54;;;;;;;416.45;189.93;;;;;;;;;;5013623;28;20062;-70
2021/12/01 13:08:31;;;;;;;325.88;145.52;;;;;;;;;;5011429;28;20034;-70
2021/12/01 13:11:11;;;;;;;308.75;137.80;;;;;;;;;;4993794;28;20029;-70
2021/12/01 13:13:42;;;;;;;264.92;114.82;;;;;;;;;;4990596;28;20045;-71
2021/12/01 13:16:22;;;;;;;267.95;116.63;;;;;;;;;;5000854;28;20054;-71
2021/12/01 13:18:51;;;;;;;251.90;115.40;;;;;;;;;;4999902;28;20380;-72
2021/12/01 13:21:20;;;;;;;272.38;122.40;;;;;;;;;;4982040;28;20343;-71
2021/12/01 13:23:53;;;;;;;209.15;97.97;;;;;;;;;;4999203;28;20033;-71
2021/12/01 13:26:29;;;;;;;279.13;147.40;;;;;;;;;;4997737;28;20352;-70
2021/12/01 13:29:05;;;;;;;282.15;150.55;;;;;;;;;;5025849;28;20113;-70
2021/12/01 13:31:43;;;;;;;249.13;122.68;;;;;;;;;;5021261;28;20021;-70
2021/12/01 13:34:23;;;;;;;255.30;116.38;;;;;;;;;;5038039;28;20049;-70
2021/12/01 13:36:59;;;;;;;241.05;112.63;;;;;;;;;;5038181;28;20021;-71
2021/12/01 13:39:31;;;;;;;227.35;101.38;;;;;;;;;;5039477;28;20433;-71
2021/12/01 13:42:02;;;;;;;199.00;88.20;;;;;;;;;;5038500;28;20052;-72
2021/12/01 13:44:39;;;;;;;197.85;84.72;;;;;;;;;;5020844;28;20025;-72
2021/12/01 13:47:10;;;;;;;192.98;82.63;;;;;;;;;;5038368;28;20097;-71
2021/12/01 13:49:51;;;;;;;193.52;84.40;;;;;;;;;;5036700;28;20026;-71
2021/12/01 13:52:29;;;;;;;192.23;77.68;;;;;;;;;;5037746;28;20017;-70
2021/12/01 13:55:16;;;;;;;195.40;74.57;;;;;;;;;;5036950;28;20367;-72
2021/12/01 13:57:50;;;;;;;173.38;67.50;;;;;;;;;;5020257;28;20050;-71
2021/12/01 14:00:29;;;;;;;153.70;66.03;;;;;;;;;;5019179;28;20028;-71
2021/12/01 14:02:57;;;;;;;166.80;66.57;;;;;;;;;;5038022;28;20037;-71
2021/12/01 14:05:28;;;;;;;167.07;67.28;;;;;;;;;;5036634;28;20018;-71
2021/12/01 14:08:00;;;;;;;164.85;67.68;;;;;;;;;;5019179;28;20362;-71
2021/12/01 14:10:47;;;;;;;178.50;70.25;;;;;;;;;;5053508;28;20029;-74
2021/12/01 14:13:18;;;;;;;187.13;76.75;;;;;;;;;;5050700;28;20026;-74
2021/12/01 14:15:46;;;;;;;174.35;72.80;;;;;;;;;;5036168;28;20022;-71
2021/12/01 14:18:17;;;;;;;173.90;71.15;;;;;;;;;;5036827;28;20105;-72
2021/12/01 14:20:45;;;;;;;175.52;69.90;;;;;;;;;;5035974;28;20525;-72
2021/12/01 14:23:15;;;;;;;161.82;64.70;;;;;;;;;;5035923;28;20022;-71
2021/12/01 14:25:51;;;;;;;132.30;57.25;;;;;;;;;;5035822;28;20326;-72
2021/12/01 14:28:18;;;;;;;132.25;50.40;;;;;;;;;;5018192;28;20040;-71
2021/12/01 14:30:50;;;;;;;124.10;52.40;;;;;;;;;;5019468;28;20021;-72
2021/12/01 14:33:18;;;;;;;145.45;60.38;;;;;;;;;;5035576;28;20033;-71
2021/12/01 14:35:47;;;;;;;147.70;61.13;;;;;;;;;;5035274;28;20357;-71
2021/12/01 14:38:15;;;;;;;174.07;72.93;;;;;;;;;;5017775;28;20044;-71
2021/12/01 14:40:44;;;;;;;179.90;71.50;;;;;;;;;;5017576;28;20032;-71
2021/12/01 14:43:12;;;;;;;188.43;74.25;;;;;;;;;;5035062;28;20025;-71